Mount Rainier Natl Park, Washington
Current Conditions -  °F | °C
As of 8:48 PM on Monday 20 Oct 2014 (Local Time) from KTCM Reporting Station
Light Rain Light Rain  
Wind Chill: 54°   Ceiling: 4600
Heat Index: 54°   Visibility: 10mi
Dew Point: 54°   Wind: 7mph
Humidity: 100%   Direction: 190°S
Pressure: 29.78"   Gusts: NA
Location:  46.87°N, 121.72°W
Report Text: KTCM 210348Z AUTO 19006KT 10SM -RA BKN046 OVC055 12/12 A2978 RMK AO2
Loading
Personal Weather Stations






























Interactive Weather Map
Tropical Storm Tracking
New forecast layout! Learn more

10-Day Weather Forecast

Advertisements
Track Severe Weather on mobile